Time;durP1;ratioP1;P1;durP2;ratioP2;P2;SDS_P1;SDS_P2;PMS_P1;PMS_P2;Temp;Humidity;BMP_temperature;BMP_pressure;BME280_temperature;BME280_humidity;BME280_pressure;Samples;Min_cycle;Max_cycle;Signal;HPM_P1;HPM_P2
2023/08/30 00:01:34;;;;;;;25.80;12.90;;;;;;;23.87;100.00;99447.63;104984;1253;67387;-50
2023/08/30 00:04:02;;;;;;;13.00;11.70;;;;;;;23.86;100.00;99451.23;105022;1253;72655;-51
2023/08/30 00:06:29;;;;;;;16.60;12.50;;;;;;;23.84;100.00;99452.83;105045;1258;60562;-51
2023/08/30 00:08:57;;;;;;;20.20;12.30;;;;;;;23.82;100.00;99456.88;104939;1257;60354;-52
2023/08/30 00:11:24;;;;;;;24.40;14.10;;;;;;;23.79;100.00;99455.23;104953;1253;73871;-52
2023/08/30 00:13:52;;;;;;;22.30;13.60;;;;;;;23.76;100.00;99456.64;104815;1259;66848;-50
2023/08/30 00:16:19;;;;;;;19.70;13.50;;;;;;;23.72;100.00;99457.20;104840;1258;72649;-52
2023/08/30 00:18:46;;;;;;;19.70;14.20;;;;;;;23.70;100.00;99456.00;105224;1256;61654;-52
2023/08/30 00:21:15;;;;;;;13.80;12.40;;;;;;;23.68;100.00;99453.54;104704;1258;60426;-51
2023/08/30 00:23:42;;;;;;;10.90;10.00;;;;;;;23.66;100.00;99454.63;105284;1253;72724;-52
2023/08/30 00:26:10;;;;;;;11.70;10.70;;;;;;;23.65;100.00;99455.70;105055;1257;66752;-51
2023/08/30 00:28:37;;;;;;;12.60;11.30;;;;;;;23.63;100.00;99458.21;104969;1255;72450;-51
2023/08/30 00:31:04;;;;;;;11.60;10.60;;;;;;;23.62;100.00;99460.77;104965;1257;60812;-51
2023/08/30 00:33:32;;;;;;;12.20;10.70;;;;;;;23.61;100.00;99463.41;104964;1254;60386;-50
2023/08/30 00:35:59;;;;;;;13.10;10.40;;;;;;;23.60;100.00;99465.50;104977;1253;72632;-52
2023/08/30 00:38:27;;;;;;;12.10;11.00;;;;;;;23.60;100.00;99466.25;104902;1259;66802;-50
2023/08/30 00:40:55;;;;;;;13.80;11.40;;;;;;;23.60;100.00;99466.98;104833;1254;71717;-51
2023/08/30 00:43:22;;;;;;;14.00;12.60;;;;;;;23.60;100.00;99469.38;104970;1254;60543;-51
2023/08/30 00:45:50;;;;;;;13.40;12.20;;;;;;;23.60;100.00;99467.91;104965;1259;60434;-52
2023/08/30 00:48:19;;;;;;;13.20;12.10;;;;;;;23.59;100.00;99467.62;106068;1253;73882;-52
2023/08/30 00:50:47;;;;;;;12.70;11.70;;;;;;;23.59;100.00;99468.98;104884;1258;66762;-52
2023/08/30 00:53:14;;;;;;;13.70;12.30;;;;;;;23.57;100.00;99468.25;105057;1257;71371;-52
2023/08/30 00:55:42;;;;;;;11.40;10.40;;;;;;;23.55;100.00;99468.13;104925;1256;60566;-52
2023/08/30 00:58:10;;;;;;;11.70;10.60;;;;;;;23.54;100.00;99468.25;104912;1253;60432;-53
2023/08/30 01:00:39;;;;;;;11.00;10.10;;;;;;;23.52;100.00;99466.20;105028;1254;73862;-52
2023/08/30 01:03:07;;;;;;;12.00;11.00;;;;;;;23.51;100.00;99465.98;105140;1260;65581;-52
2023/08/30 01:05:35;;;;;;;11.90;10.90;;;;;;;23.50;100.00;99464.09;105417;1254;72408;-52
2023/08/30 01:08:04;;;;;;;11.90;10.80;;;;;;;23.48;100.00;99463.28;106624;1254;60593;-53
2023/08/30 01:10:56;;;;;;;12.60;11.50;;;;;;;23.49;100.00;99466.37;105294;1254;60614;-52
2023/08/30 01:13:23;;;;;;;12.10;11.20;;;;;;;23.49;100.00;99464.34;104717;1253;74474;-53
2023/08/30 01:15:51;;;;;;;11.70;10.70;;;;;;;23.49;100.00;99463.25;104824;1256;66951;-52
2023/08/30 01:18:22;;;;;;;11.30;10.40;;;;;;;23.49;100.00;99460.88;105329;1254;71044;-52
2023/08/30 01:20:49;;;;;;;12.50;11.70;;;;;;;23.49;100.00;99465.59;105044;1253;61656;-52
2023/08/30 01:23:19;;;;;;;14.20;12.90;;;;;;;23.49;100.00;99465.76;104945;1260;60483;-51
2023/08/30 01:26:04;;;;;;;13.30;12.20;;;;;;;23.47;100.00;99467.80;104971;1255;72438;-52
2023/08/30 01:28:31;;;;;;;13.90;12.80;;;;;;;23.45;100.00;99466.59;104898;1253;67364;-51
2023/08/30 01:30:59;;;;;;;13.60;12.40;;;;;;;23.43;100.00;99464.61;104840;1260;72641;-51
2023/08/30 01:33:29;;;;;;;12.10;11.20;;;;;;;23.40;100.00;99465.44;104846;1253;61745;-51
2023/08/30 01:35:59;;;;;;;11.90;11.00;;;;;;;23.37;100.00;99464.31;104718;1255;60486;-51
2023/08/30 01:38:27;;;;;;;11.70;10.80;;;;;;;23.34;100.00;99465.92;104902;1253;72666;-52
2023/08/30 01:40:55;;;;;;;13.70;11.00;;;;;;;23.32;100.00;99468.27;109130;1253;65488;-51
2023/08/30 01:43:23;;;;;;;12.60;11.30;;;;;;;23.31;100.00;99465.48;109085;1253;70342;-51
2023/08/30 01:45:50;;;;;;;11.90;10.80;;;;;;;23.30;100.00;99461.24;109127;1253;61678;-51
2023/08/30 01:48:18;;;;;;;11.60;10.60;;;;;;;23.29;100.00;99462.17;109033;1253;59999;-50
2023/08/30 01:50:45;;;;;;;12.10;11.10;;;;;;;23.29;100.00;99459.60;109132;1253;73883;-51
2023/08/30 01:53:14;;;;;;;11.10;10.00;;;;;;;23.30;100.00;99460.21;109113;1253;66281;-51
2023/08/30 01:55:42;;;;;;;12.50;11.40;;;;;;;23.31;100.00;99461.45;109070;1253;71427;-51
2023/08/30 01:58:10;;;;;;;13.20;12.10;;;;;;;23.31;100.00;99461.00;109041;1253;60527;-51
2023/08/30 02:00:39;;;;;;;14.20;13.10;;;;;;;23.32;100.00;99460.45;106682;1253;60553;-52
2023/08/30 02:03:13;;;;;;;14.20;13.10;;;;;;;23.31;100.00;99456.84;105006;1253;72672;-52
2023/08/30 02:05:52;;;;;;;14.60;13.70;;;;;;;23.30;100.00;99459.39;104951;1254;67035;-51
2023/08/30 02:08:20;;;;;;;15.70;14.30;;;;;;;23.29;100.00;99456.98;104901;1260;70899;-52
2023/08/30 02:10:55;;;;;;;14.60;13.30;;;;;;;23.27;100.00;99455.52;104901;1259;62099;-51
2023/08/30 02:13:26;;;;;;;13.20;12.20;;;;;;;23.24;100.00;99456.70;104994;1253;60432;-51
2023/08/30 02:15:58;;;;;;;13.40;12.40;;;;;;;23.22;100.00;99455.48;104965;1256;74223;-50
2023/08/30 02:18:26;;;;;;;12.10;11.20;;;;;;;23.20;100.00;99460.97;104762;1259;65497;-51
2023/08/30 02:20:57;;;;;;;11.70;10.80;;;;;;;23.19;100.00;99458.94;105299;1253;72624;-51
2023/08/30 02:23:27;;;;;;;13.50;12.20;;;;;;;23.18;100.00;99460.98;104958;1258;61627;-50
2023/08/30 02:25:57;;;;;;;12.90;11.00;;;;;;;23.17;100.00;99461.80;104970;1258;60442;-52
2023/08/30 02:28:24;;;;;;;12.70;11.50;;;;;;;23.16;100.00;99461.38;105081;1255;73894;-51
2023/08/30 02:30:52;;;;;;;11.60;10.80;;;;;;;23.15;100.00;99459.27;105039;1253;67286;-51
2023/08/30 02:33:21;;;;;;;12.50;11.20;;;;;;;23.16;100.00;99458.14;104856;1253;73080;-52
2023/08/30 02:35:48;;;;;;;13.30;12.20;;;;;;;23.16;100.00;99459.38;104787;1256;62186;-52
2023/08/30 02:38:15;;;;;;;13.20;12.00;;;;;;;23.16;100.00;99459.76;104996;1258;61336;-50
2023/08/30 02:40:43;;;;;;;13.40;11.90;;;;;;;23.16;100.00;99459.35;104940;1253;72604;-52
2023/08/30 02:43:10;;;;;;;13.90;12.70;;;;;;;23.17;100.00;99456.75;105022;1259;65503;-50
2023/08/30 02:45:38;;;;;;;13.50;12.40;;;;;;;23.17;100.00;99451.80;105041;1254;72607;-51
2023/08/30 02:48:05;;;;;;;14.80;13.50;;;;;;;23.17;100.00;99453.60;104985;1253;61670;-50
2023/08/30 02:50:33;;;;;;;14.50;13.30;;;;;;;23.18;100.00;99452.61;105894;1253;60470;-52
2023/08/30 02:53:01;;;;;;;14.00;12.70;;;;;;;23.18;100.00;99449.08;104947;1253;72590;-51
2023/08/30 02:55:28;;;;;;;14.30;13.00;;;;;;;23.19;100.00;99453.58;105834;1253;65694;-52
2023/08/30 02:57:56;;;;;;;14.40;13.30;;;;;;;23.20;100.00;99455.55;104806;1253;72504;-50
2023/08/30 03:00:23;;;;;;;14.70;13.50;;;;;;;23.20;100.00;99455.45;105047;1260;61690;-50
2023/08/30 03:02:51;;;;;;;15.40;13.90;;;;;;;23.21;100.00;99450.31;104949;1258;60808;-52
2023/08/30 03:05:19;;;;;;;14.70;13.50;;;;;;;23.21;100.00;99453.05;105120;1253;73913;-52
2023/08/30 03:07:46;;;;;;;15.40;13.90;;;;;;;23.21;100.00;99450.48;105082;1254;64964;-52
2023/08/30 03:10:13;;;;;;;15.40;13.80;;;;;;;23.21;100.00;99452.13;104976;1257;71476;-50
2023/08/30 03:12:41;;;;;;;16.00;13.20;;;;;;;23.20;100.00;99454.04;104932;1253;61687;-52
2023/08/30 03:15:08;;;;;;;14.40;13.20;;;;;;;23.20;100.00;99453.46;104843;1253;60563;-52
2023/08/30 03:17:36;;;;;;;15.30;13.70;;;;;;;23.20;100.00;99453.69;104798;1253;73846;-53
2023/08/30 03:20:05;;;;;;;16.30;14.50;;;;;;;23.20;100.00;99456.40;105027;1259;67253;-52
2023/08/30 03:22:33;;;;;;;15.40;13.80;;;;;;;23.21;100.00;99458.88;105096;1253;72689;-53
2023/08/30 03:25:03;;;;;;;14.50;13.40;;;;;;;23.21;100.00;99459.53;104996;1253;61634;-52
2023/08/30 03:27:32;;;;;;;16.00;14.40;;;;;;;23.23;100.00;99462.48;105315;1253;61789;-52
2023/08/30 03:30:06;;;;;;;16.90;15.40;;;;;;;23.24;100.00;99461.09;105504;1253;72719;-52
2023/08/30 03:32:34;;;;;;;16.10;14.70;;;;;;;23.26;100.00;99461.45;105160;1255;67335;-52
2023/08/30 03:35:03;;;;;;;14.40;13.00;;;;;;;23.27;100.00;99459.16;104814;1256;71370;-52
2023/08/30 03:37:30;;;;;;;15.30;14.00;;;;;;;23.29;100.00;99458.59;104819;1260;61649;-50
2023/08/30 03:39:57;;;;;;;22.00;16.70;;;;;;;23.30;100.00;99456.91;105122;1253;60525;-50
2023/08/30 03:42:25;;;;;;;16.80;14.40;;;;;;;23.33;100.00;99458.88;104998;1258;73811;-50
2023/08/30 03:44:52;;;;;;;16.50;14.90;;;;;;;23.35;100.00;99455.91;104733;1258;65616;-51
2023/08/30 03:47:20;;;;;;;15.20;13.90;;;;;;;23.36;100.00;99462.87;104867;1253;73183;-50
2023/08/30 03:49:47;;;;;;;16.10;14.70;;;;;;;23.38;100.00;99459.76;105093;1256;60480;-50
2023/08/30 03:52:15;;;;;;;15.30;14.10;;;;;;;23.40;100.00;99456.42;104975;1253;60506;-50
2023/08/30 03:54:42;;;;;;;17.10;15.00;;;;;;;23.42;100.00;99456.46;104767;1253;74273;-52
2023/08/30 03:57:09;;;;;;;15.80;14.40;;;;;;;23.43;100.00;99457.09;104906;1253;65658;-50
2023/08/30 03:59:38;;;;;;;15.10;13.80;;;;;;;23.44;100.00;99455.48;104945;1258;72719;-49
2023/08/30 04:02:06;;;;;;;16.60;15.30;;;;;;;23.46;100.00;99460.59;104793;1258;61688;-51
2023/08/30 04:04:33;;;;;;;14.70;13.20;;;;;;;23.48;100.00;99463.52;104954;1254;60447;-52
2023/08/30 04:07:01;;;;;;;17.00;15.20;;;;;;;23.50;100.00;99462.23;105176;1253;71922;-52
2023/08/30 04:09:28;;;;;;;15.20;13.80;;;;;;;23.52;100.00;99464.77;104921;1260;65940;-51
2023/08/30 04:11:58;;;;;;;14.90;13.50;;;;;;;23.54;100.00;99463.96;104964;1258;73122;-51
2023/08/30 04:14:26;;;;;;;14.00;12.90;;;;;;;23.57;100.00;99463.65;104866;1257;61670;-51
2023/08/30 04:16:53;;;;;;;15.70;14.30;;;;;;;23.59;100.00;99456.98;105075;1253;60474;-51
2023/08/30 04:19:21;;;;;;;14.80;13.50;;;;;;;23.61;100.00;99453.29;105057;1254;74359;-51
2023/08/30 04:21:49;;;;;;;14.60;13.40;;;;;;;23.63;100.00;99451.65;104949;1253;66785;-51
2023/08/30 04:24:16;;;;;;;14.90;13.50;;;;;;;23.65;100.00;99452.02;104964;1254;72427;-50
2023/08/30 04:26:44;;;;;;;15.30;13.90;;;;;;;23.66;100.00;99452.02;104860;1259;61701;-52
2023/08/30 04:29:11;;;;;;;15.50;13.90;;;;;;;23.67;100.00;99450.62;105121;1253;60334;-51
2023/08/30 04:31:39;;;;;;;15.60;14.30;;;;;;;23.69;100.00;99451.50;109171;1252;74044;-53
2023/08/30 04:34:06;;;;;;;16.00;14.60;;;;;;;23.72;100.00;99455.84;108931;1253;67590;-49
2023/08/30 04:36:35;;;;;;;16.10;14.70;;;;;;;23.74;100.00;99456.73;109098;1253;72431;-51
2023/08/30 04:39:04;;;;;;;16.60;15.00;;;;;;;23.75;100.00;99458.76;108939;1253;60568;-50
2023/08/30 04:41:33;;;;;;;14.60;13.40;;;;;;;23.76;100.00;99457.19;108934;1253;60563;-52
2023/08/30 04:44:01;;;;;;;13.70;12.60;;;;;;;23.78;100.00;99459.72;108948;1253;73833;-51
2023/08/30 04:46:29;;;;;;;13.10;12.10;;;;;;;23.80;100.00;99456.20;108936;1253;66791;-51
2023/08/30 04:48:56;;;;;;;13.60;12.30;;;;;;;23.83;100.00;99458.80;108943;1253;72878;-51
2023/08/30 04:51:23;;;;;;;13.80;12.60;;;;;;;23.87;100.00;99458.77;108985;1252;60411;-51
2023/08/30 04:53:51;;;;;;;12.10;11.10;;;;;;;23.95;100.00;99458.30;108965;1253;59977;-51
2023/08/30 04:56:18;;;;;;;12.70;11.70;;;;;;;24.03;100.00;99453.65;108961;1253;73797;-50
2023/08/30 04:58:46;;;;;;;14.50;11.80;;;;;;;24.15;100.00;99453.45;109010;1252;66361;-53
2023/08/30 05:01:14;;;;;;;14.10;12.00;;;;;;;24.28;100.00;99450.13;109015;1253;72463;-53
2023/08/30 05:03:45;;;;;;;14.40;12.20;;;;;;;24.39;100.00;99446.25;105650;1255;60534;-48
2023/08/30 05:06:16;;;;;;;14.20;12.80;;;;;;;24.49;100.00;99449.71;104875;1259;60499;-51
2023/08/30 05:08:44;;;;;;;16.50;13.70;;;;;;;24.57;100.00;99451.82;106137;1256;73015;-52
2023/08/30 05:11:12;;;;;;;13.30;12.30;;;;;;;24.64;100.00;99455.10;105112;1253;65745;-50
2023/08/30 05:13:39;;;;;;;14.10;12.80;;;;;;;24.70;100.00;99455.67;106060;1258;72202;-51
2023/08/30 05:16:07;;;;;;;13.50;12.40;;;;;;;24.74;100.00;99451.30;104992;1259;60873;-51
2023/08/30 05:18:34;;;;;;;13.60;12.10;;;;;;;24.80;100.00;99452.11;105192;1259;60461;-53
2023/08/30 05:21:04;;;;;;;11.60;10.80;;;;;;;24.86;100.00;99451.24;105078;1253;72785;-51
2023/08/30 05:23:32;;;;;;;11.80;10.80;;;;;;;24.94;100.00;99455.40;104789;1259;65656;-51
2023/08/30 05:25:59;;;;;;;12.20;11.00;;;;;;;25.02;100.00;99458.46;104938;1259;72338;-50
2023/08/30 05:28:27;;;;;;;11.70;10.90;;;;;;;25.12;100.00;99455.70;104793;1253;60926;-51
2023/08/30 05:30:55;;;;;;;12.00;11.10;;;;;;;25.22;100.00;99459.44;105119;1255;60576;-52
2023/08/30 05:33:49;;;;;;;11.70;10.60;;;;;;;25.33;100.00;99455.12;105052;1257;74812;-52
2023/08/30 05:36:51;;;;;;;12.00;11.00;;;;;;;25.45;100.00;99455.67;107088;1258;67062;-53
2023/08/30 05:39:34;;;;;;;10.40;9.50;;;;;;;25.56;100.00;99449.86;106233;1258;71305;-51
2023/08/30 05:42:02;;;;;;;10.60;9.80;;;;;;;25.67;100.00;99447.69;104754;1253;59340;-52
2023/08/30 05:44:29;;;;;;;11.50;10.60;;;;;;;25.78;100.00;99451.89;105022;1253;60493;-51
2023/08/30 05:46:57;;;;;;;22.10;9.10;;;;;;;25.89;100.00;99458.25;104786;1256;72628;-53
2023/08/30 05:49:24;;;;;;;12.30;8.40;;;;;;;25.97;100.00;99459.29;105014;1258;65961;-53
2023/08/30 05:51:51;;;;;;;14.20;7.40;;;;;;;26.05;100.00;99458.73;105104;1253;70715;-51
2023/08/30 05:54:19;;;;;;;7.90;7.20;;;;;;;26.12;100.00;99459.11;104876;1260;61721;-51
2023/08/30 05:56:46;;;;;;;10.40;7.60;;;;;;;26.19;100.00;99461.79;105094;1253;60451;-51
2023/08/30 05:59:13;;;;;;;15.80;7.50;;;;;;;26.25;100.00;99466.61;105123;1258;73817;-52
2023/08/30 06:01:41;;;;;;;26.50;10.20;;;;;;;26.30;100.00;99470.21;104996;1253;66772;-51
2023/08/30 06:04:08;;;;;;;8.30;7.40;;;;;;;26.36;100.00;99469.98;104887;1259;71688;-51
2023/08/30 06:06:36;;;;;;;7.00;6.50;;;;;;;26.41;100.00;99478.42;104880;1258;61297;-48
2023/08/30 06:11:19;;;;;;;8.20;7.50;;;;;;;26.45;100.00;99554.86;101825;1289;600425;-51
2023/08/30 06:13:47;;;;;;;8.20;7.50;;;;;;;26.46;100.00;99547.31;103995;1264;60067;-51
2023/08/30 06:16:14;;;;;;;8.00;7.60;;;;;;;26.47;100.00;99540.02;104282;1260;59146;-53
2023/08/30 06:18:41;;;;;;;7.30;6.70;;;;;;;26.47;100.00;99533.95;104253;1267;71032;-52
2023/08/30 06:21:09;;;;;;;8.10;7.40;;;;;;;26.47;100.00;99531.55;104059;1263;66978;-51
2023/08/30 06:23:37;;;;;;;7.50;6.40;;;;;;;26.47;100.00;99527.27;104096;1263;71386;-51
2023/08/30 06:26:05;;;;;;;8.60;8.00;;;;;;;26.47;100.00;99522.88;104459;1261;183313;-51
2023/08/30 06:28:32;;;;;;;8.30;7.50;;;;;;;26.48;100.00;99520.98;104457;1265;59727;-52
2023/08/30 06:30:59;;;;;;;8.30;6.30;;;;;;;26.48;100.00;99522.20;104546;1260;72245;-51
2023/08/30 06:33:27;;;;;;;6.30;5.80;;;;;;;26.50;100.00;99522.56;104505;1265;67574;-51
2023/08/30 06:35:56;;;;;;;7.20;6.60;;;;;;;26.51;100.00;99526.43;104470;1264;71416;-50
2023/08/30 06:38:23;;;;;;;7.60;7.00;;;;;;;26.54;100.00;99527.84;104626;1264;60117;-49
2023/08/30 06:40:50;;;;;;;8.20;7.00;;;;;;;26.56;100.00;99530.08;104425;1260;60945;-50
2023/08/30 06:43:18;;;;;;;9.40;6.90;;;;;;;26.60;100.00;99525.45;104672;1261;73497;-51
2023/08/30 06:45:46;;;;;;;8.90;7.40;;;;;;;26.64;100.00;99527.27;104531;1267;65956;-49
2023/08/30 06:48:13;;;;;;;12.50;7.30;;;;;;;26.69;100.00;99531.25;104559;1267;72804;-51
2023/08/30 06:50:41;;;;;;;9.50;6.30;;;;;;;26.74;100.00;99532.87;105136;1263;59747;-52
2023/08/30 06:53:09;;;;;;;7.70;7.00;;;;;;;26.79;100.00;99534.52;104493;1261;60478;-51
2023/08/30 06:55:37;;;;;;;9.30;7.60;;;;;;;26.82;100.00;99535.23;104390;1265;73054;-51
2023/08/30 06:58:05;;;;;;;7.40;6.10;;;;;;;26.85;100.00;99537.52;105024;1260;65972;-50
2023/08/30 07:00:32;;;;;;;6.70;6.10;;;;;;;26.88;100.00;99536.55;104533;1271;72455;-51
2023/08/30 07:02:59;;;;;;;8.60;7.20;;;;;;;26.91;100.00;99536.92;104611;1261;59711;-50
2023/08/30 07:05:27;;;;;;;8.00;6.10;;;;;;;26.94;100.00;99534.52;104608;1260;60518;-50
2023/08/30 07:07:54;;;;;;;9.80;7.20;;;;;;;26.98;100.00;99533.42;104486;1267;73056;-52
2023/08/30 07:10:21;;;;;;;7.30;6.00;;;;;;;27.00;100.00;99531.03;104541;1261;66725;-52
2023/08/30 07:12:49;;;;;;;7.20;6.20;;;;;;;27.03;100.00;99532.60;104496;1266;71818;-51
2023/08/30 07:15:17;;;;;;;6.50;5.90;;;;;;;27.06;100.00;99536.47;104511;1264;60936;-52
2023/08/30 07:17:44;;;;;;;5.80;5.30;;;;;;;27.08;100.00;99536.48;104470;1260;61062;-52
2023/08/30 07:20:14;;;;;;;9.50;6.00;;;;;;;27.12;100.00;99535.75;104449;1261;71865;-52
2023/08/30 07:22:42;;;;;;;6.80;6.00;;;;;;;27.17;100.00;99540.15;104406;1261;65919;-51
2023/08/30 07:25:10;;;;;;;5.70;5.40;;;;;;;27.21;100.00;99542.38;104381;1263;72664;-52
2023/08/30 07:27:37;;;;;;;13.40;6.30;;;;;;;27.27;100.00;99541.87;108607;1261;60065;-53
2023/08/30 07:30:05;;;;;;;6.80;5.70;;;;;;;27.32;100.00;99539.19;108700;1260;59341;-52
2023/08/30 07:32:33;;;;;;;9.00;5.30;;;;;;;27.38;100.00;99541.23;108680;1260;71726;-53
2023/08/30 07:35:00;;;;;;;10.90;5.10;;;;;;;27.44;100.00;99544.52;108708;1259;66763;-53
2023/08/30 07:37:27;;;;;;;5.90;4.00;;;;;;;27.50;100.00;99542.14;108696;1259;72387;-53
2023/08/30 07:39:55;;;;;;;9.30;3.80;;;;;;;27.55;100.00;99541.88;108627;1260;58251;-53
2023/08/30 07:42:22;;;;;;;5.70;4.90;;;;;;;27.62;100.00;99540.46;108633;1260;60408;-53
2023/08/30 07:44:49;;;;;;;12.10;4.50;;;;;;;27.70;100.00;99542.33;108615;1260;71145;-52
2023/08/30 07:47:17;;;;;;;24.40;9.80;;;;;;;27.79;100.00;99542.40;108692;1260;65622;-53
2023/08/30 07:49:44;;;;;;;25.00;13.20;;;;;;;27.89;100.00;99543.40;108575;1260;72650;-53
2023/08/30 07:52:12;;;;;;;4.80;4.30;;;;;;;28.00;100.00;99544.27;108624;1262;60069;-52
2023/08/30 07:54:40;;;;;;;8.10;6.00;;;;;;;28.11;100.00;99545.66;109206;1251;59951;-53
2023/08/30 07:57:08;;;;;;;5.50;4.20;;;;;;;28.20;100.00;99544.55;105669;1256;72453;-51
2023/08/30 07:59:36;;;;;;;3.90;3.70;;;;;;;28.29;100.00;99546.89;104854;1251;67576;-52
2023/08/30 08:02:06;;;;;;;5.40;3.60;;;;;;;28.39;100.00;99545.06;105108;1257;72469;-52
2023/08/30 08:04:34;;;;;;;15.60;5.20;;;;;;;28.47;100.00;99550.15;106083;1251;59579;-51
2023/08/30 08:07:03;;;;;;;11.30;3.90;;;;;;;28.54;100.00;99554.06;105391;1251;60526;-51
2023/08/30 08:09:31;;;;;;;8.10;5.50;;;;;;;28.60;100.00;99555.89;104946;1251;72470;-50
2023/08/30 08:11:58;;;;;;;5.80;5.20;;;;;;;28.66;100.00;99554.09;105085;1256;68029;-51
2023/08/30 08:14:26;;;;;;;5.90;4.90;;;;;;;28.70;100.00;99555.50;105679;1257;72713;-52
2023/08/30 08:16:53;;;;;;;4.40;4.00;;;;;;;28.75;100.00;99555.98;105176;1253;60025;-51
2023/08/30 08:19:21;;;;;;;9.10;4.60;;;;;;;28.81;100.00;99556.95;104938;1253;60185;-51
2023/08/30 08:21:54;;;;;;;6.70;4.50;;;;;;;28.88;100.00;99553.23;104921;1256;71763;-53
2023/08/30 08:24:22;;;;;;;6.10;4.90;;;;;;;28.96;100.00;99553.90;107923;1251;65543;-53
2023/08/30 08:26:49;;;;;;;4.60;4.10;;;;;;;29.03;100.00;99557.56;105050;1256;71257;-52
2023/08/30 08:29:17;;;;;;;7.80;4.80;;;;;;;29.09;100.00;99563.22;105156;1261;59787;-53
2023/08/30 08:31:44;;;;;;;11.90;4.60;;;;;;;29.14;100.00;99559.65;105081;1251;60502;-53
2023/08/30 08:34:12;;;;;;;7.30;4.70;;;;;;;29.19;100.00;99559.01;105573;1256;74986;-51
2023/08/30 08:36:41;;;;;;;9.60;3.50;;;;;;;29.24;100.00;99557.20;105092;1256;66073;-52
2023/08/30 08:39:09;;;;;;;4.80;3.40;;;;;;;29.30;100.00;99558.61;105376;1256;73540;-52
2023/08/30 08:41:44;;;;;;;4.50;3.40;;;;;;;29.38;100.00;99561.60;106085;1254;60087;-52
2023/08/30 08:44:12;;;;;;;3.20;3.00;;;;;;;29.45;100.00;99561.80;105382;1251;60567;-52
2023/08/30 08:46:40;;;;;;;8.60;3.80;;;;;;;29.48;100.00;99565.59;105159;1253;73033;-51
2023/08/30 08:49:16;;;;;;;7.70;3.60;;;;;;;29.46;100.00;99565.73;105600;1254;67532;-52
2023/08/30 08:51:44;;;;;;;5.20;3.70;;;;;;;29.49;100.00;99565.64;105250;1254;72623;-52
2023/08/30 08:54:12;;;;;;;5.90;3.00;;;;;;;29.53;100.00;99562.77;105391;1251;59584;-51
2023/08/30 08:56:40;;;;;;;3.20;2.90;;;;;;;29.56;100.00;99563.57;105026;1251;60006;-53
2023/08/30 08:59:08;;;;;;;4.40;2.70;;;;;;;29.64;100.00;99559.79;105563;1256;72196;-51
2023/08/30 09:01:36;;;;;;;7.30;3.90;;;;;;;29.74;100.00;99562.86;105232;1251;66741;-51
2023/08/30 09:04:06;;;;;;;6.60;3.40;;;;;;;29.83;100.00;99561.91;106159;1256;73139;-53
2023/08/30 09:06:34;;;;;;;4.50;3.10;;;;;;;29.90;100.00;99563.36;105325;1253;59664;-53
2023/08/30 09:09:03;;;;;;;4.30;3.50;;;;;;;29.96;100.00;99553.83;105040;1253;59769;-52
2023/08/30 09:11:31;;;;;;;3.70;3.20;;;;;;;30.03;100.00;99557.34;105345;1251;73048;-53
2023/08/30 09:14:18;;;;;;;8.10;3.30;;;;;;;30.12;100.00;99559.48;105082;1251;66205;-54
2023/08/30 09:16:55;;;;;;;4.80;3.50;;;;;;;30.22;100.00;99556.20;105735;1253;72661;-53
2023/08/30 09:19:23;;;;;;;7.70;4.10;;;;;;;30.28;100.00;99556.64;105351;1252;59640;-52
2023/08/30 09:21:54;;;;;;;4.40;3.80;;;;;;;30.36;100.00;99558.64;105132;1250;60446;-53
2023/08/30 09:24:22;;;;;;;6.50;2.90;;;;;;;30.43;100.00;99562.40;105150;1256;72808;-52
2023/08/30 09:26:53;;;;;;;3.60;3.30;;;;;;;30.48;100.00;99564.25;105455;1256;65530;-51
2023/08/30 09:29:22;;;;;;;3.40;3.10;;;;;;;30.55;100.00;99571.20;105221;1257;72641;-52
2023/08/30 09:31:53;;;;;;;2.90;2.30;;;;;;;30.61;100.00;99565.33;105000;1254;59729;-52
2023/08/30 09:34:27;;;;;;;3.20;2.60;;;;;;;30.65;100.00;99567.73;104994;1251;59727;-52
2023/08/30 09:36:55;;;;;;;2.90;2.60;;;;;;;30.68;100.00;99566.77;104978;1251;73451;-51
2023/08/30 09:39:22;;;;;;;5.50;3.10;;;;;;;30.71;100.00;99560.75;105937;1252;67603;-51
2023/08/30 09:41:50;;;;;;;3.90;2.30;;;;;;;30.73;100.00;99558.83;104877;1253;71458;-52
2023/08/30 09:44:20;;;;;;;5.90;3.20;;;;;;;30.75;100.00;99559.15;105336;1250;60634;-51
2023/08/30 09:46:52;;;;;;;3.30;2.60;;;;;;;30.77;100.00;99563.90;105437;1256;59671;-53
2023/08/30 09:49:25;;;;;;;5.80;3.00;;;;;;;30.80;100.00;99562.88;105128;1253;73121;-52
2023/08/30 09:51:53;;;;;;;3.20;2.90;;;;;;;30.84;100.00;99557.85;105400;1255;67536;-54
2023/08/30 09:54:24;;;;;;;4.60;2.70;;;;;;;30.89;100.00;99562.20;105819;1251;72854;-52
2023/08/30 09:56:57;;;;;;;2.50;2.30;;;;;;;30.94;100.00;99558.42;105132;1253;59766;-51
2023/08/30 09:59:25;;;;;;;3.10;2.70;;;;;;;30.99;100.00;99552.02;105082;1251;60071;-53
2023/08/30 10:01:53;;;;;;;2.80;2.60;;;;;;;31.03;100.00;99551.23;104960;1251;71916;-53
2023/08/30 10:04:21;;;;;;;3.80;2.00;;;;;;;31.06;100.00;99556.92;105108;1256;65487;-52
2023/08/30 10:06:48;;;;;;;2.90;2.70;;;;;;;31.07;100.00;99557.33;105065;1257;73234;-53
2023/08/30 10:09:19;;;;;;;2.60;2.10;;;;;;;31.08;100.00;99557.90;105259;1258;61395;-51
2023/08/30 10:11:47;;;;;;;4.60;2.30;;;;;;;31.09;100.00;99557.90;109193;1251;61023;-53
2023/08/30 10:14:14;;;;;;;4.10;2.10;;;;;;;31.05;100.00;99555.45;107557;1253;73555;-52
2023/08/30 10:16:46;;;;;;;4.70;2.90;;;;;;;30.97;100.00;99553.17;105369;1251;65499;-51
2023/08/30 10:19:15;;;;;;;6.00;2.00;;;;;;;30.89;100.00;99555.04;109329;1250;73315;-54
2023/08/30 10:21:47;;;;;;;2.70;2.10;;;;;;;30.86;100.00;99549.35;109138;1251;58823;-53
2023/08/30 10:24:17;;;;;;;3.10;2.20;;;;;;;30.88;100.00;99548.80;109255;1251;60017;-53
2023/08/30 10:27:02;;;;;;;7.70;2.70;;;;;;;30.89;100.00;99553.10;109261;1251;73746;-54
2023/08/30 10:29:32;;;;;;;5.80;2.10;;;;;;;30.93;100.00;99545.64;109314;1251;65978;-54
2023/08/30 10:32:06;;;;;;;3.50;2.60;;;;;;;30.96;100.00;99548.13;109094;1250;71483;-53
2023/08/30 10:34:36;;;;;;;4.30;1.70;;;;;;;31.00;100.00;99546.47;109031;1251;60198;-53
2023/08/30 10:37:06;;;;;;;2.60;1.60;;;;;;;31.03;100.00;99545.46;109148;1251;58758;-54
2023/08/30 10:39:35;;;;;;;5.70;2.10;;;;;;;31.08;100.00;99539.93;109060;1251;72993;-54
2023/08/30 10:42:09;;;;;;;9.80;2.30;;;;;;;31.13;100.00;99539.73;109311;1251;69210;-53
2023/08/30 10:44:59;;;;;;;2.50;1.70;;;;;;;31.16;100.00;99533.23;109086;1251;71085;-53
2023/08/30 10:47:31;;;;;;;4.00;2.10;;;;;;;31.20;100.00;99532.35;109145;1250;58870;-53
2023/08/30 10:50:00;;;;;;;6.00;2.40;;;;;;;31.22;100.00;99530.11;108691;1256;59804;-52
2023/08/30 10:52:27;;;;;;;5.80;2.90;;;;;;;31.22;100.00;99531.34;106700;1251;72671;-52
2023/08/30 10:55:15;;;;;;;4.20;2.10;;;;;;;31.21;100.00;99521.87;108143;1256;66737;-53
2023/08/30 10:57:43;;;;;;;3.90;3.00;;;;;;;31.20;100.00;99516.44;105091;1256;72660;-52
2023/08/30 11:00:16;;;;;;;9.40;2.90;;;;;;;31.20;100.00;99511.05;105961;1251;62669;-51
2023/08/30 11:02:48;;;;;;;6.40;2.90;;;;;;;31.21;100.00;99509.07;105191;1251;60330;-53
2023/08/30 11:05:17;;;;;;;4.00;2.10;;;;;;;31.24;100.00;99511.51;105115;1256;73833;-51
2023/08/30 11:07:45;;;;;;;5.00;1.90;;;;;;;31.25;100.00;99507.66;105185;1256;67267;-52
2023/08/30 11:10:12;;;;;;;6.90;2.00;;;;;;;31.22;100.00;99503.00;104894;1257;72464;-52
2023/08/30 11:12:41;;;;;;;3.00;1.90;;;;;;;31.15;100.00;99496.87;105211;1251;60446;-52
2023/08/30 11:15:09;;;;;;;4.80;2.10;;;;;;;31.10;100.00;99487.81;105187;1252;60757;-52
2023/08/30 11:17:37;;;;;;;5.50;1.90;;;;;;;31.09;100.00;99487.80;105470;1250;73777;-53
2023/08/30 11:20:16;;;;;;;3.20;2.10;;;;;;;31.10;100.00;99478.36;105416;1253;67684;-51